Private Wetterstation Wechselburg
Wetterdaten: Dienstag, 08.12.2020
Datum Zeit Temp. +2m Bodentemp. Temp.+5cm Temp. Wind Windchill X Diff Temp. Feuchte +2m Feuchte +5cm Luftdruck Regen Wind Richtung Richtung Sonnenschein Taupunkt Windchill Windben
08.12.2020 00:00 -0,3 C 5,7 C 0,1 C -0,1 C -0,1 C 0,2 C 88 % 91 % 1007,3 hPa 0,0 l/m 0,0 km/h (0 Bft) O-NO 67 0 min -2,0 C -0,1 C 0,0 km/h (0 Bft)
08.12.2020 00:05 -0,4 C 5,7 C 0,1 C -0,1 C -0,1 C 0,3 C 88 % 91 % 1007,3 hPa 0,0 l/m 0,0 km/h (0 Bft) O-NO 67 0 min -2,1 C -0,1 C 0,0 km/h (0 Bft)
08.12.2020 00:10 -0,4 C 5,7 C 0,1 C -0,1 C -0,1 C 0,3 C 88 % 91 % 1007,0 hPa 0,0 l/m 0,0 km/h (0 Bft) O-NO 67 0 min -2,1 C -0,1 C 0,0 km/h (0 Bft)
08.12.2020 00:15 -0,4 C 5,7 C 0,1 C -0,1 C -0,1 C 0,3 C 88 % 91 % 1007,0 hPa 0,0 l/m 0,0 km/h (0 Bft) O-NO 67 0 min -2,1 C -0,1 C 0,0 km/h (0 Bft)
08.12.2020 00:20 -0,4 C 5,7 C 0,1 C 0,0 C 0,0 C 0,4 C 88 % 91 % 1007,0 hPa 0,0 l/m 0,0 km/h (0 Bft) O-NO 67 0 min -2,1 C 0,0 C 0,0 km/h (0 Bft)
08.12.2020 00:25 -0,3 C 5,7 C 0,1 C 0,0 C 0,0 C 0,3 C 88 % 91 % 1007,0 hPa 0,0 l/m 0,0 km/h (0 Bft) O-NO 67 0 min -2,0 C 0,0 C 0,0 km/h (0 Bft)
08.12.2020 00:30 -0,3 C 5,7 C 0,2 C 0,1 C 0,1 C 0,4 C 88 % 91 % 1006,7 hPa 0,0 l/m 0,0 km/h (0 Bft) O-NO 67 0 min -2,0 C 0,1 C 1,6 km/h (1 Bft)
08.12.2020 00:35 -0,1 C 5,7 C 0,3 C 0,2 C 0,2 C 0,3 C 88 % 91 % 1006,7 hPa 0,0 l/m 0,3 km/h (0 Bft) O-NO 67 0 min -1,8 C 0,2 C 2,3 km/h (1 Bft)
08.12.2020 00:40 -0,1 C 5,7 C 0,3 C 0,3 C 0,3 C 0,4 C 88 % 91 % 1006,7 hPa 0,0 l/m 1,0 km/h (0 Bft) O-NO 67 0 min -1,8 C 0,3 C 0,0 km/h (0 Bft)
08.12.2020 00:45 -0,1 C 5,7 C 0,4 C 0,5 C 0,5 C 0,6 C 88 % 91 % 1006,7 hPa 0,0 l/m 1,1 km/h (1 Bft) O 90 0 min -1,8 C 0,5 C 2,6 km/h (1 Bft)
08.12.2020 00:50 -0,1 C 5,7 C 0,3 C 0,5 C 0,5 C 0,6 C 88 % 91 % 1007,0 hPa 0,0 l/m 1,1 km/h (1 Bft) S 180 0 min -1,8 C 0,5 C 0,0 km/h (0 Bft)
08.12.2020 00:55 -0,1 C 5,7 C 0,3 C 0,3 C 0,3 C 0,4 C 88 % 91 % 1007,0 hPa 0,0 l/m 0,8 km/h (0 Bft) S 180 0 min -1,8 C 0,3 C 3,4 km/h (1 Bft)
08.12.2020 01:00 -0,1 C 5,7 C 0,3 C 0,3 C 0,3 C 0,4 C 88 % 91 % 1007,0 hPa 0,0 l/m 0,3 km/h (0 Bft) S 180 0 min -1,8 C 0,3 C 0,0 km/h (0 Bft)
08.12.2020 01:05 -0,1 C 5,7 C 0,3 C 0,2 C 0,2 C 0,3 C 88 % 91 % 1007,0 hPa 0,0 l/m 0,0 km/h (0 Bft) S 180 0 min -1,8 C 0,2 C 0,0 km/h (0 Bft)
08.12.2020 01:10 -0,1 C 5,7 C 0,3 C 0,3 C 0,3 C 0,4 C 88 % 91 % 1006,9 hPa 0,0 l/m 0,0 km/h (0 Bft) S 180 0 min -1,8 C 0,3 C 0,0 km/h (0 Bft)
08.12.2020 01:15 -0,1 C 5,7 C 0,4 C 0,3 C 0,3 C 0,4 C 88 % 91 % 1006,9 hPa 0,0 l/m 0,0 km/h (0 Bft) S 180 0 min -1,8 C 0,3 C 0,0 km/h (0 Bft)
08.12.2020 01:20 -0,1 C 5,7 C 0,4 C 0,4 C 0,4 C 0,5 C 88 % 91 % 1006,9 hPa 0,0 l/m 0,0 km/h (0 Bft) S 180 0 min -1,8 C 0,4 C 0,0 km/h (0 Bft)
08.12.2020 01:25 0,1 C 5,6 C 0,5 C 0,6 C 0,6 C 0,5 C 88 % 91 % 1006,9 hPa 0,0 l/m 0,0 km/h (0 Bft) S 180 0 min -1,6 C 0,6 C 0,0 km/h (0 Bft)
08.12.2020 01:30 0,0 C 5,6 C 0,5 C 0,6 C 0,6 C 0,6 C 88 % 91 % 1006,5 hPa 0,0 l/m 0,0 km/h (0 Bft) S 180 0 min -1,7 C 0,6 C 0,0 km/h (0 Bft)
08.12.2020 01:35 0,1 C 5,6 C 0,6 C 0,7 C 0,7 C 0,6 C 88 % 91 % 1006,5 hPa 0,0 l/m 0,0 km/h (0 Bft) S 180 0 min -1,6 C 0,7 C 0,0 km/h (0 Bft)
08.12.2020 01:40 0,1 C 5,6 C 0,6 C 0,7 C 0,7 C 0,6 C 88 % 91 % 1006,5 hPa 0,0 l/m 0,0 km/h (0 Bft) S 180 0 min -1,6 C 0,7 C 0,0 km/h (0 Bft)
08.12.2020 01:45 0,1 C 5,6 C 0,6 C 0,7 C 0,7 C 0,6 C 88 % 91 % 1006,5 hPa 0,0 l/m 0,0 km/h (0 Bft) S 180 0 min -1,6 C 0,7 C 0,0 km/h (0 Bft)
08.12.2020 01:50 0,1 C 5,6 C 0,6 C 0,7 C 0,7 C 0,6 C 88 % 91 % 1006,4 hPa 0,0 l/m 0,0 km/h (0 Bft) S 180 0 min -1,6 C 0,7 C 0,0 km/h (0 Bft)
08.12.2020 01:55 0,3 C 5,6 C 0,6 C 0,7 C 0,7 C 0,4 C 88 % 91 % 1006,4 hPa 0,0 l/m 0,0 km/h (0 Bft) S 180 0 min -1,4 C 0,7 C 0,0 km/h (0 Bft)
08.12.2020 02:00 0,3 C 5,6 C 0,7 C 0,7 C 0,7 C 0,4 C 88 % 91 % 1006,4 hPa 0,0 l/m 0,0 km/h (0 Bft) S 180 0 min -1,4 C 0,7 C 0,0 km/h (0 Bft)
08.12.2020 02:05 0,3 C 5,6 C 0,7 C 0,7 C 0,7 C 0,4 C 88 % 91 % 1006,4 hPa 0,0 l/m 0,0 km/h (0 Bft) S 180 0 min -1,4 C 0,7 C 0,0 km/h (0 Bft)
08.12.2020 02:10 0,1 C 5,6 C 0,6 C 0,6 C 0,6 C 0,5 C 88 % 91 % 1006,4 hPa 0,0 l/m 0,0 km/h (0 Bft) S 180 0 min -1,6 C 0,6 C 0,0 km/h (0 Bft)
08.12.2020 02:15 0,2 C 5,6 C 0,6 C 0,7 C 0,7 C 0,5 C 88 % 91 % 1006,4 hPa 0,0 l/m 0,0 km/h (0 Bft) S 180 0 min -1,5 C 0,7 C 0,0 km/h (0 Bft)
08.12.2020 02:20 0,2 C 5,6 C 0,7 C 0,7 C 0,7 C 0,5 C 88 % 91 % 1006,4 hPa 0,0 l/m 0,0 km/h (0 Bft) S 180 0 min -1,5 C 0,7 C 0,0 km/h (0 Bft)
08.12.2020 02:25 0,3 C 5,6 C 0,7 C 0,8 C 0,8 C 0,5 C 88 % 91 % 1006,4 hPa 0,0 l/m 0,0 km/h (0 Bft) S 180 0 min -1,4 C 0,8 C 0,0 km/h (0 Bft)
08.12.2020 02:30 0,3 C 5,6 C 0,7 C 0,9 C 0,9 C 0,6 C 88 % 91 % 1006,2 hPa 0,0 l/m 0,0 km/h (0 Bft) S 180 0 min -1,4 C 0,9 C 0,0 km/h (0 Bft)
08.12.2020 02:35 0,3 C 5,5 C 0,8 C 0,9 C 0,9 C 0,6 C 88 % 91 % 1006,2 hPa 0,0 l/m 0,0 km/h (0 Bft) S 180 0 min -1,4 C 0,9 C 0,0 km/h (0 Bft)
08.12.2020 02:40 0,3 C 5,5 C 0,8 C 1,0 C 1,0 C 0,7 C 88 % 91 % 1006,2 hPa 0,0 l/m 0,0 km/h (0 Bft) S 180 0 min -1,4 C 1,0 C 0,0 km/h (0 Bft)
08.12.2020 02:45 0,3 C 5,5 C 0,8 C 0,9 C 0,9 C 0,6 C 88 % 91 % 1006,2 hPa 0,0 l/m 0,0 km/h (0 Bft) S-SW 202 0 min -1,4 C 0,9 C 0,0 km/h (0 Bft)
08.12.2020 02:50 0,3 C 5,5 C 0,7 C 0,9 C 0,9 C 0,6 C 88 % 91 % 1006,6 hPa 0,0 l/m 0,0 km/h (0 Bft) S-SW 202 0 min -1,4 C 0,9 C 0,0 km/h (0 Bft)
08.12.2020 02:55 0,3 C 5,5 C 0,8 C 0,9 C 0,9 C 0,6 C 88 % 91 % 1006,6 hPa 0,0 l/m 0,0 km/h (0 Bft) S-SW 202 0 min -1,4 C 0,9 C 0,0 km/h (0 Bft)
08.12.2020 03:00 0,3 C 5,5 C 0,8 C 0,9 C 0,9 C 0,6 C 88 % 91 % 1006,6 hPa 0,0 l/m 0,0 km/h (0 Bft) S-SW 202 0 min -1,4 C 0,9 C 0,0 km/h (0 Bft)
08.12.2020 03:05 0,3 C 5,5 C 0,8 C 0,9 C 0,9 C 0,6 C 88 % 91 % 1006,6 hPa 0,0 l/m 0,0 km/h (0 Bft) S-SW 202 0 min -1,4 C 0,9 C 0,0 km/h (0 Bft)
08.12.2020 03:10 0,4 C 5,5 C 0,8 C 0,9 C 0,9 C 0,5 C 88 % 91 % 1006,2 hPa 0,0 l/m 0,0 km/h (0 Bft) S-SW 202 0 min -1,3 C 0,9 C 0,0 km/h (0 Bft)
08.12.2020 03:15 0,4 C 5,5 C 0,9 C 1,0 C 1,0 C 0,6 C 88 % 91 % 1006,2 hPa 0,0 l/m 0,0 km/h (0 Bft) S-SW 202 0 min -1,3 C 1,0 C 0,0 km/h (0 Bft)
08.12.2020 03:20 0,4 C 5,5 C 0,9 C 1,1 C 1,1 C 0,7 C 88 % 91 % 1006,2 hPa 0,0 l/m 0,0 km/h (0 Bft) S-SW 202 0 min -1,3 C 1,1 C 0,0 km/h (0 Bft)
08.12.2020 03:25 0,5 C 5,5 C 0,9 C 1,1 C 1,1 C 0,6 C 88 % 91 % 1006,2 hPa 0,0 l/m 0,2 km/h (0 Bft) S 180 0 min -1,3 C 1,1 C 0,0 km/h (0 Bft)
08.12.2020 03:30 0,4 C 5,5 C 0,9 C 1,0 C 1,0 C 0,6 C 88 % 91 % 1006,2 hPa 0,0 l/m 0,2 km/h (0 Bft) S-SW 202 0 min -1,3 C 1,0 C 0,0 km/h (0 Bft)
08.12.2020 03:35 0,4 C 5,5 C 0,7 C 0,9 C 0,9 C 0,5 C 88 % 91 % 1006,2 hPa 0,0 l/m 0,0 km/h (0 Bft) S-SW 202 0 min -1,3 C 0,9 C 0,0 km/h (0 Bft)
08.12.2020 03:40 0,4 C 5,5 C 0,6 C 0,7 C 0,7 C 0,3 C 88 % 91 % 1006,2 hPa 0,0 l/m 0,0 km/h (0 Bft) S-SW 202 0 min -1,3 C 0,7 C 0,0 km/h (0 Bft)
08.12.2020 03:45 0,4 C 5,5 C 0,5 C 0,4 C 0,4 C 0,0 C 88 % 91 % 1006,2 hPa 0,0 l/m 0,2 km/h (0 Bft) S 180 0 min -1,3 C 0,4 C 1,6 km/h (1 Bft)
08.12.2020 03:50 0,5 C 5,5 C 0,6 C 0,6 C 0,6 C 0,1 C 88 % 91 % 1006,0 hPa 0,0 l/m 0,3 km/h (0 Bft) S 180 0 min -1,3 C 0,6 C 0,0 km/h (0 Bft)
08.12.2020 03:55 0,4 C 5,5 C 0,7 C 0,9 C 0,9 C 0,5 C 88 % 91 % 1006,0 hPa 0,0 l/m 0,3 km/h (0 Bft) S 180 0 min -1,3 C 0,9 C 0,0 km/h (0 Bft)
08.12.2020 04:00 0,4 C 5,5 C 0,8 C 1,0 C 1,0 C 0,6 C 88 % 91 % 1006,0 hPa 0,0 l/m 0,0 km/h (0 Bft) S 180 0 min -1,3 C 1,0 C 0,0 km/h (0 Bft)
08.12.2020 04:05 0,5 C 5,5 C 0,8 C 1,1 C 1,1 C 0,6 C 88 % 91 % 1006,0 hPa 0,0 l/m 0,0 km/h (0 Bft) S 180 0 min -1,3 C 1,1 C 0,0 km/h (0 Bft)
08.12.2020 04:10 0,5 C 5,5 C 0,9 C 1,2 C 1,2 C 0,7 C 88 % 91 % 1005,7 hPa 0,0 l/m 0,0 km/h (0 Bft) S-SW 202 0 min -1,3 C 1,2 C 0,0 km/h (0 Bft)
08.12.2020 04:15 0,5 C 5,5 C 0,9 C 1,2 C 1,2 C 0,7 C 88 % 91 % 1005,7 hPa 0,0 l/m 0,0 km/h (0 Bft) S 180 0 min -1,3 C 1,2 C 0,0 km/h (0 Bft)
08.12.2020 04:20 0,5 C 5,5 C 0,9 C 1,1 C 1,1 C 0,6 C 88 % 91 % 1005,7 hPa 0,0 l/m 0,2 km/h (0 Bft) S 180 0 min -1,3 C 1,1 C 1,9 km/h (1 Bft)
08.12.2020 04:25 0,5 C 5,5 C 0,9 C 1,2 C 1,2 C 0,7 C 88 % 91 % 1005,7 hPa 0,0 l/m 0,2 km/h (0 Bft) S 180 0 min -1,3 C 1,2 C 0,0 km/h (0 Bft)
08.12.2020 04:30 0,5 C 5,5 C 1,0 C 1,3 C 1,3 C 0,8 C 88 % 91 % 1006,1 hPa 0,0 l/m 0,3 km/h (0 Bft) S-SW 202 0 min -1,3 C 1,3 C 1,8 km/h (1 Bft)
08.12.2020 04:35 0,5 C 5,5 C 0,9 C 1,2 C 1,2 C 0,7 C 88 % 91 % 1006,1 hPa 0,0 l/m 0,2 km/h (0 Bft) S-SW 202 0 min -1,3 C 1,2 C 0,0 km/h (0 Bft)
08.12.2020 04:40 0,5 C 5,5 C 0,9 C 1,1 C 1,1 C 0,6 C 88 % 91 % 1006,1 hPa 0,0 l/m 0,2 km/h (0 Bft) S-SW 202 0 min -1,3 C 1,1 C 0,0 km/h (0 Bft)
08.12.2020 04:45 0,5 C 5,5 C 1,0 C 1,1 C 1,1 C 0,6 C 88 % 91 % 1006,1 hPa 0,0 l/m 0,0 km/h (0 Bft) S-SW 202 0 min -1,3 C 1,1 C 0,0 km/h (0 Bft)
08.12.2020 04:50 0,5 C 5,5 C 1,0 C 1,1 C 1,1 C 0,6 C 88 % 91 % 1006,5 hPa 0,0 l/m 0,0 km/h (0 Bft) S-SW 202 0 min -1,3 C 1,1 C 0,0 km/h (0 Bft)
08.12.2020 04:55 0,5 C 5,5 C 1,0 C 1,1 C 1,1 C 0,6 C 88 % 91 % 1006,5 hPa 0,0 l/m 0,2 km/h (0 Bft) S 180 0 min -1,3 C 1,1 C 0,0 km/h (0 Bft)
08.12.2020 05:00 0,6 C 5,5 C 1,0 C 1,1 C 1,1 C 0,5 C 88 % 91 % 1006,5 hPa 0,0 l/m 0,2 km/h (0 Bft) S 180 0 min -1,2 C 1,1 C 0,0 km/h (0 Bft)
08.12.2020 05:05 0,6 C 5,5 C 1,0 C 1,1 C 1,1 C 0,5 C 88 % 91 % 1006,5 hPa 0,0 l/m 0,2 km/h (0 Bft) S 180 0 min -1,2 C 1,1 C 0,0 km/h (0 Bft)
08.12.2020 05:10 0,7 C 5,5 C 0,9 C 1,1 C 1,1 C 0,4 C 88 % 91 % 1006,0 hPa 0,0 l/m 0,0 km/h (0 Bft) S 180 0 min -1,1 C 1,1 C 0,0 km/h (0 Bft)
08.12.2020 05:15 0,7 C 5,4 C 0,9 C 0,9 C 0,9 C 0,2 C 88 % 91 % 1006,0 hPa 0,0 l/m 0,5 km/h (0 Bft) S 180 0 min -1,1 C 0,9 C 2,1 km/h (1 Bft)
08.12.2020 05:20 0,7 C 5,4 C 0,6 C 0,7 C 0,7 C 0,0 C 88 % 91 % 1006,0 hPa 0,0 l/m 0,5 km/h (0 Bft) S 180 0 min -1,1 C 0,7 C 0,0 km/h (0 Bft)
08.12.2020 05:25 0,5 C 5,4 C 0,3 C 0,4 C 0,1 C 0,0 C 88 % 91 % 1006,0 hPa 0,0 l/m 0,2 km/h (0 Bft) S 180 0 min -1,3 C 0,1 C 0,0 km/h (0 Bft)
08.12.2020 05:30 0,5 C 5,4 C 0,0 C 0,3 C -0,1 C 0,0 C 88 % 91 % 1006,2 hPa 0,0 l/m 0,0 km/h (0 Bft) S 180 0 min -1,3 C -0,1 C 0,0 km/h (0 Bft)
08.12.2020 05:35 0,4 C 5,4 C -0,1 C 0,1 C -0,4 C 0,0 C 88 % 91 % 1006,2 hPa 0,0 l/m 0,0 km/h (0 Bft) S 180 0 min -1,3 C -0,4 C 0,0 km/h (0 Bft)
08.12.2020 05:40 0,4 C 5,4 C -0,2 C 0,1 C -0,6 C 0,0 C 88 % 91 % 1006,2 hPa 0,0 l/m 0,0 km/h (0 Bft) S 180 0 min -1,3 C -0,6 C 0,0 km/h (0 Bft)
08.12.2020 05:45 0,2 C 5,4 C -0,5 C -0,1 C -0,7 C 0,0 C 88 % 91 % 1006,2 hPa 0,0 l/m 0,0 km/h (0 Bft) S 180 0 min -1,5 C -0,7 C 0,0 km/h (0 Bft)
08.12.2020 05:50 0,3 C 5,4 C -0,7 C -0,1 C -0,9 C 0,0 C 88 % 91 % 1006,5 hPa 0,0 l/m 0,0 km/h (0 Bft) S 180 0 min -1,4 C -0,9 C 0,0 km/h (0 Bft)
08.12.2020 05:55 0,0 C 5,4 C -0,9 C -0,4 C -1,1 C 0,0 C 88 % 91 % 1006,5 hPa 0,0 l/m 0,0 km/h (0 Bft) S 180 0 min -1,7 C -1,1 C 0,0 km/h (0 Bft)
08.12.2020 06:00 -0,1 C 5,4 C -1,0 C -0,5 C -1,2 C 0,0 C 88 % 91 % 1006,5 hPa 0,0 l/m 0,0 km/h (0 Bft) S 180 0 min -1,8 C -1,2 C 1,6 km/h (1 Bft)
08.12.2020 06:05 -0,1 C 5,4 C -1,1 C -0,6 C -1,5 C 0,0 C 88 % 91 % 1006,5 hPa 0,0 l/m 0,0 km/h (0 Bft) S 180 0 min -1,8 C -1,5 C 0,0 km/h (0 Bft)
08.12.2020 06:10 -0,1 C 5,4 C -1,2 C -0,6 C -1,7 C 0,0 C 88 % 91 % 1006,7 hPa 0,0 l/m 0,0 km/h (0 Bft) S 180 0 min -1,8 C -1,7 C 0,0 km/h (0 Bft)
08.12.2020 06:15 -0,4 C 5,4 C -1,5 C -0,9 C -1,9 C 0,0 C 88 % 91 % 1006,7 hPa 0,0 l/m 0,0 km/h (0 Bft) S 180 0 min -2,1 C -1,9 C 0,0 km/h (0 Bft)
08.12.2020 06:20 -0,5 C 5,3 C -1,6 C -1,0 C -1,9 C 0,0 C 88 % 91 % 1006,7 hPa 0,0 l/m 0,0 km/h (0 Bft) S 180 0 min -2,2 C -1,9 C 0,0 km/h (0 Bft)
08.12.2020 06:25 -0,5 C 5,4 C -1,8 C -1,0 C -2,1 C 0,0 C 88 % 91 % 1006,7 hPa 0,0 l/m 0,0 km/h (0 Bft) S 180 0 min -2,2 C -2,1 C 0,0 km/h (0 Bft)
08.12.2020 06:30 -0,7 C 5,4 C -1,9 C -1,2 C -2,2 C 0,0 C 88 % 91 % 1006,2 hPa 0,0 l/m 0,0 km/h (0 Bft) S 180 0 min -2,4 C -2,2 C 0,0 km/h (0 Bft)
08.12.2020 06:35 -0,9 C 5,4 C -2,0 C -1,3 C -2,2 C 0,0 C 88 % 91 % 1006,2 hPa 0,0 l/m 0,0 km/h (0 Bft) S 180 0 min -2,6 C -2,2 C 0,0 km/h (0 Bft)
08.12.2020 06:40 -0,9 C 5,4 C -2,0 C -1,3 C -2,1 C 0,0 C 88 % 91 % 1006,2 hPa 0,0 l/m 0,0 km/h (0 Bft) S 180 0 min -2,6 C -2,1 C 0,0 km/h (0 Bft)
08.12.2020 06:45 -1,0 C 5,4 C -2,1 C -1,4 C -2,1 C 0,0 C 88 % 91 % 1006,2 hPa 0,0 l/m 0,0 km/h (0 Bft) S 180 0 min -2,7 C -2,1 C 0,0 km/h (0 Bft)
08.12.2020 06:50 -1,1 C 5,4 C -2,2 C -1,5 C -2,3 C 0,0 C 88 % 92 % 1006,2 hPa 0,0 l/m 0,0 km/h (0 Bft) S 180 0 min -2,8 C -2,3 C 0,0 km/h (0 Bft)
08.12.2020 06:55 -1,2 C 5,4 C -2,2 C -1,5 C -2,1 C 0,0 C 88 % 92 % 1006,2 hPa 0,0 l/m 0,0 km/h (0 Bft) S 180 0 min -2,9 C -2,1 C 0,0 km/h (0 Bft)
08.12.2020 07:00 -1,2 C 5,4 C -2,3 C -1,5 C -2,0 C 0,0 C 88 % 92 % 1006,2 hPa 0,0 l/m 0,0 km/h (0 Bft) S 180 0 min -2,9 C -2,0 C 0,0 km/h (0 Bft)
08.12.2020 07:05 -1,3 C 5,4 C -2,3 C -1,6 C -2,3 C 0,0 C 88 % 92 % 1006,2 hPa 0,0 l/m 0,0 km/h (0 Bft) S 180 0 min -3,0 C -2,3 C 0,0 km/h (0 Bft)
08.12.2020 07:10 -1,3 C 5,4 C -2,3 C -1,7 C -2,5 C 0,0 C 88 % 92 % 1006,4 hPa 0,0 l/m 0,0 km/h (0 Bft) S 180 0 min -3,0 C -2,5 C 0,0 km/h (0 Bft)
08.12.2020 07:15 -1,3 C 5,4 C -2,4 C -1,7 C -2,6 C 0,0 C 88 % 92 % 1006,4 hPa 0,0 l/m 0,0 km/h (0 Bft) S 180 0 min -3,0 C -2,6 C 0,0 km/h (0 Bft)
08.12.2020 07:20 -1,5 C 5,4 C -2,5 C -1,9 C -2,8 C 0,0 C 88 % 92 % 1006,4 hPa 0,0 l/m 0,0 km/h (0 Bft) S 180 0 min -3,2 C -2,8 C 0,0 km/h (0 Bft)
08.12.2020 07:25 -1,6 C 5,3 C -2,7 C -2,1 C -3,1 C 0,0 C 88 % 92 % 1006,4 hPa 0,0 l/m 0,0 km/h (0 Bft) S 180 0 min -3,3 C -3,1 C 0,0 km/h (0 Bft)
08.12.2020 07:30 -1,7 C 5,3 C -2,7 C -2,2 C -3,1 C 0,0 C 88 % 92 % 1006,5 hPa 0,0 l/m 0,0 km/h (0 Bft) S 180 0 min -3,4 C -3,1 C 0,0 km/h (0 Bft)
08.12.2020 07:35 -1,7 C 5,3 C -2,7 C -2,1 C -3,0 C 0,0 C 88 % 92 % 1006,5 hPa 0,0 l/m 0,0 km/h (0 Bft) S 180 0 min -3,4 C -3,0 C 0,0 km/h (0 Bft)
08.12.2020 07:40 -1,7 C 5,3 C -2,8 C -2,1 C -2,9 C 0,0 C 88 % 92 % 1006,5 hPa 0,0 l/m 0,0 km/h (0 Bft) S 180 0 min -3,4 C -2,9 C 0,0 km/h (0 Bft)
08.12.2020 07:45 -2,0 C 5,3 C -2,9 C -2,3 C -3,0 C 0,0 C 88 % 92 % 1006,5 hPa 0,0 l/m 0,0 km/h (0 Bft) S 180 0 min -3,7 C -3,0 C 0,0 km/h (0 Bft)
08.12.2020 07:50 -2,0 C 5,3 C -2,9 C -2,3 C -2,9 C 0,0 C 88 % 92 % 1006,4 hPa 0,0 l/m 0,3 km/h (0 Bft) S 180 0 min -3,7 C -2,9 C 0,0 km/h (0 Bft)
08.12.2020 07:55 -2,0 C 5,3 C -2,8 C -2,2 C -2,6 C 0,0 C 88 % 92 % 1006,4 hPa 0,0 l/m 0,3 km/h (0 Bft) S 180 0 min -3,7 C -2,6 C 0,0 km/h (0 Bft)
08.12.2020 08:00 -2,0 C 5,3 C -2,9 C -2,2 C -2,6 C 0,0 C 88 % 92 % 1006,4 hPa 0,0 l/m 0,2 km/h (0 Bft) S 180 0 min -3,7 C -2,6 C 0,0 km/h (0 Bft)
08.12.2020 08:05 -2,1 C 5,3 C -2,9 C -2,3 C -2,7 C 0,0 C 88 % 92 % 1006,4 hPa 0,0 l/m 0,0 km/h (0 Bft) S 180 0 min -3,8 C -2,7 C 0,0 km/h (0 Bft)
08.12.2020 08:10 -2,1 C 5,3 C -2,9 C -2,3 C -2,6 C 0,0 C 88 % 92 % 1006,6 hPa 0,0 l/m 0,0 km/h (0 Bft) S 180 0 min -3,8 C -2,6 C 0,0 km/h (0 Bft)
08.12.2020 08:15 -2,1 C 5,3 C -2,9 C -2,3 C -2,8 C 0,0 C 88 % 92 % 1006,6 hPa 0,0 l/m 0,0 km/h (0 Bft) S 180 0 min -3,8 C -2,8 C 0,0 km/h (0 Bft)
08.12.2020 08:20 -2,1 C 5,3 C -2,9 C -2,4 C -2,9 C 0,0 C 88 % 92 % 1006,6 hPa 0,0 l/m 0,0 km/h (0 Bft) S 180 0 min -3,8 C -2,9 C 0,0 km/h (0 Bft)
08.12.2020 08:25 -2,1 C 5,3 C -2,9 C -2,4 C -2,9 C 0,0 C 88 % 92 % 1006,6 hPa 0,0 l/m 0,0 km/h (0 Bft) S 180 0 min -3,8 C -2,9 C 0,0 km/h (0 Bft)
08.12.2020 08:30 -2,1 C 5,3 C -2,9 C -2,4 C -2,9 C 0,0 C 88 % 92 % 1007,2 hPa 0,0 l/m 0,0 km/h (0 Bft) S 180 0 min -3,8 C -2,9 C 0,0 km/h (0 Bft)
08.12.2020 08:35 -2,3 C 5,3 C -2,9 C -2,5 C -2,9 C 0,0 C 88 % 92 % 1007,2 hPa 0,0 l/m 0,0 km/h (0 Bft) S 180 0 min -4,0 C -2,9 C 0,0 km/h (0 Bft)
08.12.2020 08:40 -2,3 C 5,1 C -2,9 C -2,4 C -2,6 C 0,0 C 88 % 92 % 1007,2 hPa 0,0 l/m 0,0 km/h (0 Bft) S 180 0 min -4,0 C -2,6 C 0,0 km/h (0 Bft)
08.12.2020 08:45 -2,4 C 5,1 C -2,9 C -2,5 C -2,6 C 0,0 C 88 % 92 % 1007,2 hPa 0,0 l/m 0,0 km/h (0 Bft) S 180 0 min -4,1 C -2,6 C 0,0 km/h (0 Bft)
08.12.2020 08:50 -2,3 C 5,1 C -2,9 C -2,4 C -2,7 C 0,0 C 88 % 92 % 1007,2 hPa 0,0 l/m 0,0 km/h (0 Bft) S 180 0 min -4,0 C -2,7 C 0,0 km/h (0 Bft)
08.12.2020 08:55 -2,3 C 5,1 C -2,8 C -2,4 C -2,6 C 0,0 C 88 % 92 % 1007,2 hPa 0,0 l/m 0,0 km/h (0 Bft) S 180 0 min -4,0 C -2,6 C 0,0 km/h (0 Bft)
08.12.2020 09:00 -2,5 C 5,1 C -2,7 C -2,5 C -2,5 C 0,0 C 88 % 92 % 1007,2 hPa 0,0 l/m 0,0 km/h (0 Bft) S 180 0 min -4,2 C -2,5 C 0,0 km/h (0 Bft)
08.12.2020 09:05 -2,4 C 5,1 C -2,6 C -2,4 C -2,5 C 0,0 C 88 % 92 % 1007,2 hPa 0,0 l/m 0,0 km/h (0 Bft) S 180 0 min -4,1 C -2,5 C 0,0 km/h (0 Bft)
08.12.2020 09:10 -2,3 C 5,1 C -2,6 C -2,4 C -2,5 C 0,0 C 88 % 92 % 1007,0 hPa 0,0 l/m 0,0 km/h (0 Bft) S 180 0 min -4,0 C -2,5 C 0,0 km/h (0 Bft)
08.12.2020 09:15 -2,5 C 5,1 C -2,5 C -2,5 C -2,5 C 0,0 C 88 % 92 % 1007,0 hPa 0,0 l/m 0,0 km/h (0 Bft) S 180 0 min -4,2 C -2,5 C 0,0 km/h (0 Bft)
08.12.2020 09:20 -2,3 C 5,1 C -2,5 C -2,3 C -2,3 C 0,0 C 88 % 92 % 1007,0 hPa 0,0 l/m 0,0 km/h (0 Bft) S 180 0 min -4,0 C -2,3 C 0,0 km/h (0 Bft)
08.12.2020 09:25 -2,3 C 5,1 C -2,4 C -2,2 C -2,2 C 0,1 C 88 % 93 % 1007,0 hPa 0,0 l/m 0,0 km/h (0 Bft) S 180 0 min -4,0 C -2,2 C 0,0 km/h (0 Bft)
08.12.2020 09:30 -2,4 C 5,1 C -2,3 C -2,1 C -2,1 C 0,3 C 88 % 93 % 1007,1 hPa 0,0 l/m 0,0 km/h (0 Bft) S 180 0 min -4,1 C -2,1 C 0,0 km/h (0 Bft)
08.12.2020 09:35 -2,4 C 5,1 C -2,2 C -2,0 C -2,0 C 0,4 C 88 % 93 % 1007,1 hPa 0,0 l/m 0,0 km/h (0 Bft) S 180 0 min -4,1 C -2,0 C 0,0 km/h (0 Bft)
08.12.2020 09:40 -2,3 C 5,1 C -2,1 C -2,0 C -2,0 C 0,3 C 88 % 93 % 1007,1 hPa 0,0 l/m 0,0 km/h (0 Bft) S 180 0 min -4,0 C -2,0 C 0,0 km/h (0 Bft)
08.12.2020 09:45 -2,1 C 5,1 C -2,0 C -1,9 C -1,9 C 0,2 C 88 % 93 % 1007,1 hPa 0,0 l/m 0,0 km/h (0 Bft) S 180 0 min -3,8 C -1,9 C 0,0 km/h (0 Bft)
08.12.2020 09:50 -2,1 C 5,1 C -1,9 C -1,7 C -1,7 C 0,4 C 88 % 93 % 1007,5 hPa 0,0 l/m 0,0 km/h (0 Bft) S 180 0 min -3,8 C -1,7 C 0,0 km/h (0 Bft)
08.12.2020 09:55 -2,1 C 5,1 C -1,9 C -1,2 C -1,2 C 0,9 C 88 % 93 % 1007,5 hPa 0,0 l/m 0,0 km/h (0 Bft) S 180 0 min -3,8 C -1,2 C 0,0 km/h (0 Bft)
08.12.2020 10:00 -2,0 C 5,1 C -1,7 C -1,0 C -1,0 C 1,0 C 88 % 93 % 1007,5 hPa 0,0 l/m 0,0 km/h (0 Bft) S 180 0 min -3,7 C -1,0 C 0,0 km/h (0 Bft)
08.12.2020 10:05 -1,7 C 5,1 C -1,6 C -0,6 C -0,6 C 1,1 C 89 % 92 % 1007,5 hPa 0,0 l/m 0,0 km/h (0 Bft) S 180 0 min -3,3 C -0,6 C 0,0 km/h (0 Bft)
08.12.2020 10:10 -1,7 C 5,1 C -1,5 C -0,4 C -0,4 C 1,3 C 88 % 92 % 1007,6 hPa 0,0 l/m 0,0 km/h (0 Bft) S 180 0 min -3,4 C -0,4 C 0,0 km/h (0 Bft)
08.12.2020 10:15 -1,6 C 5,1 C -1,3 C 0,3 C 0,3 C 1,9 C 88 % 93 % 1007,6 hPa 0,0 l/m 0,0 km/h (0 Bft) S 180 0 min -3,3 C 0,3 C 0,0 km/h (0 Bft)
08.12.2020 10:20 -1,5 C 5,1 C -1,2 C 0,5 C 0,5 C 2,0 C 88 % 93 % 1007,6 hPa 0,0 l/m 0,0 km/h (0 Bft) S 180 0 min -3,2 C 0,5 C 0,0 km/h (0 Bft)
08.12.2020 10:25 -1,3 C 5,1 C -1,0 C 0,9 C 0,9 C 2,2 C 88 % 92 % 1007,6 hPa 0,0 l/m 0,0 km/h (0 Bft) S 180 0 min -3,0 C 0,9 C 0,0 km/h (0 Bft)
08.12.2020 10:30 -1,2 C 5,1 C -0,9 C 0,7 C 0,7 C 1,9 C 89 % 92 % 1007,2 hPa 0,0 l/m 0,0 km/h (0 Bft) S 180 0 min -2,8 C 0,7 C 0,0 km/h (0 Bft)
08.12.2020 10:35 -1,1 C 5,1 C -0,6 C 0,6 C 0,6 C 1,7 C 88 % 92 % 1007,2 hPa 0,0 l/m 0,0 km/h (0 Bft) S 180 0 min -2,8 C 0,6 C 0,0 km/h (0 Bft)
08.12.2020 10:40 -0,9 C 5,1 C -0,5 C 1,4 C 1,4 C 2,3 C 88 % 92 % 1007,2 hPa 0,0 l/m 0,0 km/h (0 Bft) S 180 0 min -2,6 C 1,4 C 0,0 km/h (0 Bft)
08.12.2020 10:45 -0,7 C 5,1 C -0,1 C 1,8 C 1,8 C 2,5 C 88 % 93 % 1007,2 hPa 0,0 l/m 0,0 km/h (0 Bft) S-SW 202 0 min -2,4 C 1,8 C 0,0 km/h (0 Bft)
08.12.2020 10:50 -0,5 C 5,1 C 0,0 C 1,9 C 1,9 C 2,4 C 88 % 93 % 1006,8 hPa 0,0 l/m 0,0 km/h (0 Bft) S-SW 202 0 min -2,2 C 1,9 C 0,0 km/h (0 Bft)
08.12.2020 10:55 -0,1 C 5,1 C 0,4 C 2,2 C 2,2 C 2,3 C 89 % 93 % 1006,8 hPa 0,0 l/m 0,3 km/h (0 Bft) S-SW 202 0 min -1,7 C 2,2 C 0,0 km/h (0 Bft)
08.12.2020 11:00 -0,1 C 5,1 C 0,4 C 2,5 C 2,5 C 2,6 C 89 % 93 % 1006,8 hPa 0,0 l/m 0,3 km/h (0 Bft) S-SW 202 0 min -1,7 C 2,5 C 0,0 km/h (0 Bft)
08.12.2020 11:05 0,1 C 5,1 C 0,5 C 3,6 C 3,6 C 3,5 C 89 % 93 % 1006,8 hPa 0,0 l/m 0,0 km/h (0 Bft) S-SW 202 5 min -1,5 C 3,6 C 0,0 km/h (0 Bft)
08.12.2020 11:10 0,1 C 5,1 C 0,5 C 3,6 C 3,6 C 3,5 C 89 % 93 % 1006,6 hPa 0,0 l/m 0,0 km/h (0 Bft) S-SW 202 5 min -1,5 C 3,6 C 0,0 km/h (0 Bft)
08.12.2020 11:15 0,4 C 4,9 C 1,0 C 6,9 C 6,9 C 6,5 C 89 % 93 % 1006,6 hPa 0,0 l/m 0,0 km/h (0 Bft) S-SW 202 5 min -1,2 C 6,9 C 0,0 km/h (0 Bft)
08.12.2020 11:20 0,5 C 4,9 C 1,1 C 7,7 C 7,7 C 7,2 C 89 % 92 % 1006,6 hPa 0,0 l/m 0,2 km/h (0 Bft) S-SW 202 5 min -1,1 C 7,7 C 0,0 km/h (0 Bft)
08.12.2020 11:25 0,8 C 4,9 C 1,5 C 9,0 C 9,0 C 8,2 C 89 % 92 % 1006,6 hPa 0,0 l/m 0,2 km/h (0 Bft) S-SW 202 5 min -0,8 C 9,0 C 0,0 km/h (0 Bft)
08.12.2020 11:30 1,1 C 4,9 C 1,7 C 9,4 C 9,4 C 8,3 C 89 % 92 % 1006,8 hPa 0,0 l/m 0,3 km/h (0 Bft) S-SW 202 5 min -0,5 C 9,4 C 1,8 km/h (1 Bft)
08.12.2020 11:35 1,5 C 4,9 C 2,2 C 8,0 C 8,0 C 6,5 C 89 % 93 % 1006,8 hPa 0,0 l/m 0,6 km/h (0 Bft) S-SW 202 5 min -0,1 C 8,0 C 0,0 km/h (0 Bft)
08.12.2020 11:40 1,8 C 4,9 C 2,3 C 8,4 C 8,4 C 6,6 C 88 % 93 % 1006,8 hPa 0,0 l/m 1,1 km/h (1 Bft) N-NO 22 5 min 0,0 C 8,4 C 1,9 km/h (1 Bft)
08.12.2020 11:45 2,0 C 4,9 C 2,5 C 9,1 C 9,1 C 7,1 C 88 % 93 % 1006,8 hPa 0,0 l/m 1,0 km/h (0 Bft) N-NO 22 5 min 0,2 C 9,1 C 3,9 km/h (1 Bft)
08.12.2020 11:50 2,2 C 4,9 C 2,6 C 9,1 C 9,1 C 6,9 C 89 % 93 % 1006,5 hPa 0,0 l/m 0,6 km/h (0 Bft) N 360 5 min 0,6 C 9,1 C 1,6 km/h (1 Bft)
08.12.2020 11:55 2,5 C 4,9 C 2,8 C 8,8 C 8,8 C 6,3 C 89 % 93 % 1006,5 hPa 0,0 l/m 0,6 km/h (0 Bft) O-NO 67 5 min 0,9 C 8,8 C 6,1 km/h (2 Bft)
08.12.2020 12:00 2,7 C 4,9 C 3,1 C 8,6 C 8,6 C 5,9 C 89 % 92 % 1006,5 hPa 0,0 l/m 0,3 km/h (0 Bft) O-NO 67 5 min 1,1 C 8,6 C 0,0 km/h (0 Bft)
08.12.2020 12:05 3,1 C 4,9 C 3,5 C 8,4 C 8,4 C 5,3 C 88 % 93 % 1006,5 hPa 0,0 l/m 0,3 km/h (0 Bft) N-NW 337 5 min 1,3 C 8,4 C 1,6 km/h (1 Bft)
08.12.2020 12:10 3,5 C 4,9 C 3,8 C 8,6 C 8,6 C 5,1 C 88 % 92 % 1006,8 hPa 0,0 l/m 0,6 km/h (0 Bft) S-SW 202 5 min 1,7 C 8,6 C 0,0 km/h (0 Bft)
08.12.2020 12:15 3,9 C 4,8 C 4,3 C 8,4 C 8,4 C 4,5 C 88 % 92 % 1006,8 hPa 0,0 l/m 0,8 km/h (0 Bft) SO 135 5 min 2,1 C 8,4 C 0,0 km/h (0 Bft)
08.12.2020 12:20 4,2 C 4,8 C 4,5 C 8,4 C 8,4 C 4,2 C 88 % 92 % 1006,8 hPa 0,0 l/m 1,0 km/h (0 Bft) NO 45 5 min 2,4 C 8,4 C 0,0 km/h (0 Bft)
08.12.2020 12:25 4,9 C 4,8 C 4,9 C 8,4 C 8,4 C 3,5 C 88 % 91 % 1006,8 hPa 0,0 l/m 2,3 km/h (1 Bft) O-NO 67 5 min 3,1 C 8,4 C 7,4 km/h (2 Bft)
08.12.2020 12:30 5,4 C 4,8 C 5,0 C 8,2 C 8,2 C 2,8 C 88 % 90 % 1005,7 hPa 0,0 l/m 3,2 km/h (1 Bft) NO 45 0 min 3,6 C 8,2 C 5,6 km/h (1 Bft)
08.12.2020 12:35 6,3 C 4,8 C 5,3 C 7,9 C 7,9 C 1,6 C 87 % 89 % 1005,7 hPa 0,0 l/m 4,3 km/h (1 Bft) O-NO 67 0 min 4,3 C 7,9 C 8,5 km/h (2 Bft)
08.12.2020 12:40 6,4 C 4,8 C 5,5 C 8,1 C 8,1 C 1,7 C 86 % 88 % 1005,7 hPa 0,0 l/m 4,0 km/h (1 Bft) O 90 0 min 4,2 C 8,1 C 1,6 km/h (1 Bft)
08.12.2020 12:45 6,6 C 4,8 C 5,8 C 8,4 C 8,4 C 1,8 C 85 % 86 % 1005,7 hPa 0,0 l/m 1,8 km/h (1 Bft) O 90 0 min 4,3 C 8,4 C 0,0 km/h (0 Bft)
08.12.2020 12:50 6,7 C 4,8 C 6,0 C 8,6 C 8,6 C 1,9 C 85 % 86 % 1005,2 hPa 0,0 l/m 0,3 km/h (0 Bft) O 90 0 min 4,4 C 8,6 C 0,0 km/h (0 Bft)
08.12.2020 12:55 6,8 C 4,8 C 6,0 C 9,3 C 9,3 C 2,5 C 82 % 84 % 1005,2 hPa 0,0 l/m 2,4 km/h (1 Bft) O 90 0 min 3,9 C 9,3 C 13,8 km/h (3 Bft)
08.12.2020 13:00 6,9 C 4,8 C 5,9 C 8,9 C 8,9 C 2,0 C 81 % 83 % 1005,2 hPa 0,0 l/m 4,2 km/h (1 Bft) O 90 0 min 3,9 C 8,9 C 6,0 km/h (2 Bft)
08.12.2020 13:05 6,8 C 4,8 C 5,7 C 7,9 C 7,9 C 1,1 C 79 % 82 % 1005,2 hPa 0,0 l/m 5,1 km/h (1 Bft) NO 45 0 min 3,4 C 7,3 C 12,2 km/h (2 Bft)
08.12.2020 13:10 6,8 C 4,8 C 5,8 C 7,3 C 7,3 C 0,5 C 79 % 81 % 1006,1 hPa 0,0 l/m 6,0 km/h (2 Bft) NW 315 0 min 3,4 C 6,4 C 4,8 km/h (1 Bft)
08.12.2020 13:15 6,8 C 4,8 C 5,7 C 7,8 C 7,8 C 1,0 C 78 % 82 % 1006,1 hPa 0,0 l/m 4,8 km/h (1 Bft) O-NO 67 0 min 3,2 C 7,3 C 1,6 km/h (1 Bft)
08.12.2020 13:20 6,8 C 4,9 C 5,7 C 8,4 C 8,4 C 1,6 C 78 % 81 % 1006,1 hPa 0,0 l/m 3,4 km/h (1 Bft) O-NO 67 0 min 3,2 C 8,4 C 6,6 km/h (2 Bft)
08.12.2020 13:25 6,8 C 4,9 C 5,8 C 8,5 C 8,5 C 1,7 C 77 % 81 % 1006,1 hPa 0,0 l/m 3,2 km/h (1 Bft) O-NO 67 0 min 3,1 C 8,5 C 2,4 km/h (1 Bft)
08.12.2020 13:30 6,9 C 4,9 C 5,7 C 8,6 C 8,6 C 1,7 C 77 % 81 % 1006,4 hPa 0,0 l/m 3,2 km/h (1 Bft) O-NO 67 0 min 3,2 C 8,6 C 4,2 km/h (1 Bft)
08.12.2020 13:35 6,8 C 4,9 C 5,7 C 8,6 C 8,6 C 1,8 C 76 % 81 % 1006,4 hPa 0,0 l/m 2,9 km/h (1 Bft) O-NO 67 0 min 2,9 C 8,6 C 6,4 km/h (2 Bft)
08.12.2020 13:40 6,8 C 4,9 C 5,7 C 8,3 C 8,3 C 1,5 C 76 % 81 % 1006,4 hPa 0,0 l/m 3,9 km/h (1 Bft) O-NO 67 0 min 2,9 C 8,3 C 4,5 km/h (1 Bft)
08.12.2020 13:45 6,7 C 4,9 C 5,7 C 7,7 C 7,7 C 1,0 C 75 % 80 % 1006,4 hPa 0,0 l/m 5,1 km/h (1 Bft) O-NO 67 0 min 2,6 C 7,1 C 7,4 km/h (2 Bft)
08.12.2020 13:50 6,7 C 4,9 C 5,6 C 7,9 C 7,9 C 1,2 C 75 % 80 % 1006,3 hPa 0,0 l/m 5,3 km/h (1 Bft) N-NO 22 0 min 2,6 C 7,3 C 4,0 km/h (1 Bft)
08.12.2020 13:55 6,7 C 5,0 C 5,5 C 8,8 C 8,8 C 2,1 C 76 % 81 % 1006,3 hPa 0,0 l/m 4,0 km/h (1 Bft) N-NO 22 0 min 2,8 C 8,8 C 3,7 km/h (1 Bft)
08.12.2020 14:00 6,7 C 5,0 C 5,4 C 8,9 C 8,9 C 2,2 C 76 % 81 % 1006,3 hPa 0,0 l/m 2,9 km/h (1 Bft) NO 45 0 min 2,8 C 8,9 C 6,9 km/h (2 Bft)
08.12.2020 14:05 6,6 C 5,0 C 5,5 C 8,6 C 8,6 C 2,0 C 76 % 81 % 1006,3 hPa 0,0 l/m 3,5 km/h (1 Bft) NO 45 0 min 2,7 C 8,6 C 2,4 km/h (1 Bft)
08.12.2020 14:10 6,6 C 5,0 C 5,4 C 8,8 C 8,8 C 2,2 C 76 % 81 % 1006,6 hPa 0,0 l/m 4,0 km/h (1 Bft) O-NO 67 0 min 2,7 C 8,8 C 3,1 km/h (1 Bft)
08.12.2020 14:15 6,7 C 5,0 C 5,3 C 8,4 C 8,4 C 1,7 C 76 % 81 % 1006,6 hPa 0,0 l/m 4,3 km/h (1 Bft) O-NO 67 0 min 2,8 C 8,4 C 8,0 km/h (2 Bft)
08.12.2020 14:20 6,5 C 5,0 C 5,4 C 8,0 C 8,0 C 1,5 C 76 % 81 % 1006,6 hPa 0,0 l/m 4,8 km/h (1 Bft) NO 45 0 min 2,6 C 7,6 C 5,8 km/h (2 Bft)
08.12.2020 14:25 6,5 C 5,0 C 5,4 C 7,4 C 7,4 C 0,9 C 76 % 81 % 1006,6 hPa 0,0 l/m 5,5 km/h (1 Bft) O-NO 67 0 min 2,6 C 6,6 C 5,1 km/h (1 Bft)
08.12.2020 14:30 6,4 C 5,1 C 5,3 C 7,7 C 7,7 C 1,3 C 75 % 81 % 1007,1 hPa 0,0 l/m 4,8 km/h (1 Bft) O-NO 67 0 min 2,3 C 7,2 C 4,5 km/h (1 Bft)
08.12.2020 14:35 6,5 C 5,1 C 5,3 C 7,3 C 7,3 C 0,8 C 75 % 80 % 1007,1 hPa 0,0 l/m 5,8 km/h (2 Bft) NO 45 0 min 2,4 C 6,4 C 7,9 km/h (2 Bft)
08.12.2020 14:40 6,3 C 5,1 C 5,3 C 6,9 C 6,9 C 0,6 C 75 % 80 % 1007,1 hPa 0,0 l/m 6,4 km/h (2 Bft) O-NO 67 0 min 2,2 C 5,8 C 8,4 km/h (2 Bft)
08.12.2020 14:45 6,2 C 5,1 C 5,2 C 6,9 C 6,2 C 0,7 C 75 % 80 % 1007,1 hPa 0,0 l/m 7,7 km/h (2 Bft) O-NO 67 0 min 2,1 C 4,6 C 8,2 km/h (2 Bft)
08.12.2020 14:50 6,3 C 5,1 C 5,1 C 6,3 C 6,2 C 0,0 C 75 % 80 % 1007,5 hPa 0,0 l/m 7,7 km/h (2 Bft) O-NO 67 0 min 2,2 C 4,6 C 5,3 km/h (1 Bft)
08.12.2020 14:55 6,1 C 5,1 C 5,0 C 5,9 C 5,6 C 0,0 C 75 % 80 % 1007,5 hPa 0,0 l/m 6,4 km/h (2 Bft) N-NO 22 0 min 2,0 C 4,3 C 14,8 km/h (3 Bft)
08.12.2020 15:00 6,1 C 5,2 C 5,0 C 5,9 C 5,4 C 0,0 C 75 % 81 % 1007,5 hPa 0,0 l/m 5,8 km/h (2 Bft) N-NW 337 0 min 2,0 C 4,2 C 4,7 km/h (1 Bft)
08.12.2020 15:05 6,0 C 5,2 C 4,8 C 5,7 C 5,1 C 0,0 C 75 % 80 % 1007,5 hPa 0,0 l/m 5,8 km/h (2 Bft) O-NO 67 0 min 1,9 C 3,9 C 3,9 km/h (1 Bft)
08.12.2020 15:10 5,9 C 5,2 C 4,6 C 5,8 C 5,5 C 0,0 C 75 % 80 % 1007,6 hPa 0,0 l/m 4,0 km/h (1 Bft) O-NO 67 0 min 1,8 C 5,5 C 2,9 km/h (1 Bft)
08.12.2020 15:15 5,9 C 5,2 C 4,4 C 5,7 C 5,2 C 0,0 C 76 % 81 % 1007,6 hPa 0,0 l/m 3,7 km/h (1 Bft) NO 45 0 min 2,0 C 5,2 C 5,8 km/h (2 Bft)
08.12.2020 15:20 5,9 C 5,2 C 4,3 C 5,5 C 4,8 C 0,0 C 76 % 81 % 1007,6 hPa 0,0 l/m 4,3 km/h (1 Bft) N-NO 22 0 min 2,0 C 4,8 C 4,0 km/h (1 Bft)
08.12.2020 15:25 5,6 C 5,2 C 4,1 C 5,3 C 4,6 C 0,0 C 76 % 82 % 1007,6 hPa 0,0 l/m 4,3 km/h (1 Bft) O-NO 67 0 min 1,7 C 4,6 C 6,0 km/h (2 Bft)
08.12.2020 15:30 5,6 C 5,2 C 3,9 C 5,3 C 4,7 C 0,0 C 76 % 82 % 1007,6 hPa 0,0 l/m 4,2 km/h (1 Bft) O-NO 67 0 min 1,7 C 4,7 C 5,8 km/h (2 Bft)
08.12.2020 15:35 5,4 C 5,2 C 3,8 C 5,0 C 4,2 C 0,0 C 76 % 82 % 1007,6 hPa 0,0 l/m 4,7 km/h (1 Bft) O-NO 67 0 min 1,5 C 3,3 C 5,6 km/h (1 Bft)
08.12.2020 15:40 5,4 C 5,2 C 3,8 C 5,0 C 4,2 C 0,0 C 76 % 83 % 1007,6 hPa 0,0 l/m 4,8 km/h (1 Bft) NO 45 0 min 1,5 C 3,3 C 6,1 km/h (2 Bft)
08.12.2020 15:45 5,3 C 5,2 C 3,7 C 4,7 C 3,6 C 0,0 C 77 % 83 % 1007,6 hPa 0,0 l/m 5,5 km/h (1 Bft) O-NO 67 0 min 1,6 C 2,3 C 8,2 km/h (2 Bft)
08.12.2020 15:50 5,1 C 5,2 C 3,6 C 4,5 C 3,4 C 0,0 C 77 % 83 % 1007,7 hPa 0,0 l/m 5,6 km/h (1 Bft) NO 45 0 min 1,4 C 2,0 C 6,0 km/h (2 Bft)
08.12.2020 15:55 5,1 C 5,2 C 3,5 C 4,5 C 3,2 C 0,0 C 77 % 84 % 1007,7 hPa 0,0 l/m 6,0 km/h (2 Bft) NO 45 0 min 1,4 C 1,7 C 7,6 km/h (2 Bft)
08.12.2020 16:00 4,9 C 5,2 C 3,4 C 4,3 C 3,0 C 0,0 C 77 % 83 % 1007,7 hPa 0,0 l/m 5,6 km/h (1 Bft) O-NO 67 0 min 1,2 C 1,6 C 6,0 km/h (2 Bft)
08.12.2020 16:05 4,8 C 5,4 C 3,1 C 4,2 C 3,0 C 0,0 C 77 % 84 % 1007,7 hPa 0,0 l/m 5,1 km/h (1 Bft) O-NO 67 0 min 1,1 C 1,8 C 4,7 km/h (1 Bft)
08.12.2020 16:10 4,6 C 5,4 C 3,1 C 4,0 C 2,9 C 0,0 C 77 % 84 % 1007,9 hPa 0,0 l/m 4,3 km/h (1 Bft) N-NO 22 0 min 0,9 C 2,9 C 4,2 km/h (1 Bft)
08.12.2020 16:15 4,3 C 5,4 C 3,0 C 3,9 C 3,2 C 0,0 C 78 % 84 % 1007,9 hPa 0,0 l/m 3,2 km/h (1 Bft) NO 45 0 min 0,8 C 3,2 C 3,1 km/h (1 Bft)
08.12.2020 16:20 4,3 C 5,4 C 2,8 C 3,8 C 2,8 C 0,0 C 78 % 84 % 1007,9 hPa 0,0 l/m 3,5 km/h (1 Bft) NO 45 0 min 0,8 C 2,8 C 6,3 km/h (2 Bft)
08.12.2020 16:25 4,0 C 5,4 C 2,7 C 3,3 C 2,0 C 0,0 C 78 % 85 % 1007,9 hPa 0,0 l/m 4,8 km/h (1 Bft) NO 45 0 min 0,5 C 0,8 C 8,9 km/h (2 Bft)
08.12.2020 16:30 4,0 C 5,4 C 2,6 C 3,2 C 1,7 C 0,0 C 79 % 85 % 1007,9 hPa 0,0 l/m 5,6 km/h (1 Bft) NO 45 0 min 0,7 C 0,1 C 6,4 km/h (2 Bft)
08.12.2020 16:35 3,9 C 5,4 C 2,3 C 3,2 C 1,9 C 0,0 C 79 % 85 % 1007,9 hPa 0,0 l/m 4,8 km/h (1 Bft) NO 45 0 min 0,6 C 0,7 C 2,4 km/h (1 Bft)
08.12.2020 16:40 3,7 C 5,4 C 2,2 C 3,2 C 2,3 C 0,0 C 79 % 86 % 1007,9 hPa 0,0 l/m 3,5 km/h (1 Bft) N-NO 22 0 min 0,4 C 2,3 C 2,9 km/h (1 Bft)
08.12.2020 16:45 3,6 C 5,4 C 2,1 C 3,2 C 2,5 C 0,0 C 79 % 86 % 1007,9 hPa 0,0 l/m 2,6 km/h (1 Bft) N-NO 22 0 min 0,3 C 2,5 C 2,4 km/h (1 Bft)
08.12.2020 16:50 3,5 C 5,4 C 2,1 C 3,1 C 2,3 C 0,0 C 79 % 86 % 1007,8 hPa 0,0 l/m 2,7 km/h (1 Bft) N-NO 22 0 min 0,2 C 2,3 C 3,4 km/h (1 Bft)
08.12.2020 16:55 3,4 C 5,4 C 2,1 C 3,0 C 2,1 C 0,0 C 80 % 86 % 1007,8 hPa 0,0 l/m 2,9 km/h (1 Bft) NO 45 0 min 0,3 C 2,1 C 3,7 km/h (1 Bft)
08.12.2020 17:00 3,3 C 5,4 C 2,1 C 2,9 C 2,0 C 0,0 C 80 % 86 % 1007,8 hPa 0,0 l/m 3,1 km/h (1 Bft) NO 45 0 min 0,2 C 2,0 C 4,0 km/h (1 Bft)
08.12.2020 17:05 3,3 C 5,4 C 2,1 C 2,7 C 1,6 C 0,0 C 81 % 87 % 1007,8 hPa 0,0 l/m 3,9 km/h (1 Bft) NO 45 0 min 0,4 C 1,6 C 5,8 km/h (2 Bft)
08.12.2020 17:10 3,3 C 5,4 C 2,1 C 2,7 C 1,6 C 0,0 C 81 % 87 % 1007,9 hPa 0,0 l/m 4,3 km/h (1 Bft) NO 45 0 min 0,4 C 1,6 C 5,3 km/h (1 Bft)
08.12.2020 17:15 3,3 C 5,4 C 2,1 C 2,8 C 1,7 C 0,0 C 81 % 87 % 1007,9 hPa 0,0 l/m 4,0 km/h (1 Bft) O-NO 67 0 min 0,4 C 1,7 C 3,4 km/h (1 Bft)
08.12.2020 17:20 3,2 C 5,4 C 1,9 C 2,7 C 1,8 C 0,0 C 81 % 86 % 1007,9 hPa 0,0 l/m 3,5 km/h (1 Bft) O-NO 67 0 min 0,3 C 1,8 C 3,1 km/h (1 Bft)
08.12.2020 17:25 3,0 C 5,4 C 1,6 C 2,7 C 2,1 C 0,0 C 81 % 86 % 1007,9 hPa 0,0 l/m 2,4 km/h (1 Bft) NO 45 0 min 0,1 C 2,1 C 2,4 km/h (1 Bft)
08.12.2020 17:30 2,9 C 5,4 C 1,4 C 2,6 C 2,0 C 0,0 C 81 % 86 % 1007,8 hPa 0,0 l/m 1,8 km/h (1 Bft) NO 45 0 min -0,0 C 2,0 C 0,0 km/h (0 Bft)
08.12.2020 17:35 2,7 C 5,4 C 0,7 C 2,4 C 1,7 C 0,0 C 81 % 86 % 1007,8 hPa 0,0 l/m 0,6 km/h (0 Bft) NO 45 0 min -0,2 C 1,7 C 0,0 km/h (0 Bft)
08.12.2020 17:40 2,5 C 5,4 C 0,5 C 2,1 C 1,4 C 0,0 C 81 % 86 % 1007,8 hPa 0,0 l/m 0,2 km/h (0 Bft) N-NO 22 0 min -0,4 C 1,4 C 0,0 km/h (0 Bft)
08.12.2020 17:45 2,3 C 5,5 C 0,4 C 1,9 C 1,2 C 0,0 C 81 % 87 % 1007,8 hPa 0,0 l/m 0,2 km/h (0 Bft) N-NO 22 0 min -0,6 C 1,2 C 0,0 km/h (0 Bft)
08.12.2020 17:50 2,3 C 5,5 C 0,3 C 1,9 C 1,1 C 0,0 C 81 % 87 % 1008,1 hPa 0,0 l/m 0,2 km/h (0 Bft) N-NO 22 0 min -0,6 C 1,1 C 0,0 km/h (0 Bft)
08.12.2020 17:55 2,1 C 5,5 C 0,2 C 1,7 C 0,9 C 0,0 C 81 % 87 % 1008,1 hPa 0,0 l/m 0,0 km/h (0 Bft) N-NO 22 0 min -0,8 C 0,9 C 0,0 km/h (0 Bft)
08.12.2020 18:00 2,0 C 5,5 C 0,3 C 1,6 C 0,9 C 0,0 C 82 % 88 % 1008,1 hPa 0,0 l/m 0,0 km/h (0 Bft) O-NO 67 0 min -0,7 C 0,9 C 2,1 km/h (1 Bft)
08.12.2020 18:05 2,0 C 5,5 C 0,0 C 1,6 C 0,8 C 0,0 C 82 % 88 % 1008,1 hPa 0,0 l/m 0,2 km/h (0 Bft) NO 45 0 min -0,7 C 0,8 C 0,0 km/h (0 Bft)
08.12.2020 18:10 1,9 C 5,5 C -0,1 C 1,5 C 0,7 C 0,0 C 82 % 88 % 1008,3 hPa 0,0 l/m 0,2 km/h (0 Bft) N-NO 22 0 min -0,8 C 0,7 C 0,0 km/h (0 Bft)
08.12.2020 18:15 1,7 C 5,5 C -0,2 C 1,4 C 0,7 C 0,0 C 82 % 88 % 1008,3 hPa 0,0 l/m 0,0 km/h (0 Bft) N-NO 22 0 min -1,0 C 0,7 C 0,0 km/h (0 Bft)
08.12.2020 18:20 1,7 C 5,5 C -0,1 C 1,4 C 0,7 C 0,0 C 83 % 89 % 1008,3 hPa 0,0 l/m 0,0 km/h (0 Bft) N-NO 22 0 min -0,9 C 0,7 C 0,0 km/h (0 Bft)
08.12.2020 18:25 1,6 C 5,5 C 0,1 C 1,4 C 0,9 C 0,0 C 83 % 89 % 1008,3 hPa 0,0 l/m 0,0 km/h (0 Bft) O-NO 67 0 min -1,0 C 0,9 C 1,8 km/h (1 Bft)
08.12.2020 18:30 1,7 C 5,5 C 0,5 C 1,5 C 1,1 C 0,0 C 83 % 90 % 1008,2 hPa 0,0 l/m 0,3 km/h (0 Bft) O-NO 67 0 min -0,9 C 1,1 C 0,0 km/h (0 Bft)
08.12.2020 18:35 1,9 C 5,5 C 1,1 C 1,8 C 1,6 C 0,0 C 84 % 90 % 1008,2 hPa 0,0 l/m 1,3 km/h (1 Bft) NO 45 0 min -0,5 C 1,6 C 2,1 km/h (1 Bft)
08.12.2020 18:40 2,1 C 5,5 C 1,3 C 2,0 C 1,9 C 0,0 C 84 % 90 % 1008,2 hPa 0,0 l/m 1,4 km/h (1 Bft) NO 45 0 min -0,3 C 1,9 C 1,8 km/h (1 Bft)
08.12.2020 18:45 2,3 C 5,5 C 1,5 C 2,2 C 2,1 C 0,0 C 84 % 90 % 1008,2 hPa 0,0 l/m 1,3 km/h (1 Bft) NO 45 0 min -0,1 C 2,1 C 3,1 km/h (1 Bft)
08.12.2020 18:50 2,4 C 5,4 C 1,6 C 2,3 C 2,1 C 0,0 C 84 % 89 % 1008,2 hPa 0,0 l/m 1,1 km/h (1 Bft) NO 45 0 min -0,0 C 2,1 C 2,9 km/h (1 Bft)
08.12.2020 18:55 2,4 C 5,4 C 1,7 C 2,3 C 2,1 C 0,0 C 84 % 89 % 1008,2 hPa 0,0 l/m 0,8 km/h (0 Bft) NO 45 0 min -0,0 C 2,1 C 2,3 km/h (1 Bft)
08.12.2020 19:00 2,4 C 5,4 C 1,7 C 2,4 C 2,3 C 0,0 C 84 % 89 % 1008,2 hPa 0,0 l/m 1,3 km/h (1 Bft) NO 45 0 min -0,0 C 2,3 C 2,4 km/h (1 Bft)
08.12.2020 19:05 2,6 C 5,4 C 1,9 C 2,6 C 2,5 C 0,0 C 84 % 89 % 1008,2 hPa 0,0 l/m 1,4 km/h (1 Bft) O-NO 67 0 min 0,2 C 2,5 C 0,0 km/h (0 Bft)
08.12.2020 19:10 2,7 C 5,4 C 2,0 C 2,6 C 2,5 C 0,0 C 84 % 89 % 1008,2 hPa 0,0 l/m 1,0 km/h (0 Bft) NO 45 0 min 0,3 C 2,5 C 0,0 km/h (0 Bft)
08.12.2020 19:15 2,7 C 5,4 C 2,0 C 2,6 C 2,5 C 0,0 C 84 % 88 % 1008,2 hPa 0,0 l/m 0,6 km/h (0 Bft) O-NO 67 0 min 0,3 C 2,5 C 2,1 km/h (1 Bft)
08.12.2020 19:20 2,7 C 5,4 C 2,1 C 2,6 C 2,5 C 0,0 C 84 % 88 % 1008,2 hPa 0,0 l/m 1,1 km/h (1 Bft) NO 45 0 min 0,3 C 2,5 C 1,8 km/h (1 Bft)
08.12.2020 19:25 2,7 C 5,4 C 2,2 C 2,7 C 2,6 C 0,0 C 84 % 89 % 1008,2 hPa 0,0 l/m 1,9 km/h (1 Bft) NO 45 0 min 0,3 C 2,6 C 2,9 km/h (1 Bft)
08.12.2020 19:30 2,7 C 5,4 C 2,1 C 2,6 C 2,5 C 0,0 C 84 % 88 % 1008,4 hPa 0,0 l/m 1,6 km/h (1 Bft) NO 45 0 min 0,3 C 2,5 C 1,8 km/h (1 Bft)
08.12.2020 19:35 2,6 C 5,4 C 2,0 C 2,5 C 2,4 C 0,0 C 84 % 88 % 1008,4 hPa 0,0 l/m 1,0 km/h (0 Bft) O-NO 67 0 min 0,2 C 2,4 C 1,8 km/h (1 Bft)
08.12.2020 19:40 2,7 C 5,4 C 2,0 C 2,6 C 2,3 C 0,0 C 84 % 88 % 1008,4 hPa 0,0 l/m 1,4 km/h (1 Bft) NO 45 0 min 0,3 C 2,3 C 2,4 km/h (1 Bft)
08.12.2020 19:45 2,5 C 5,4 C 1,9 C 2,4 C 2,1 C 0,0 C 84 % 88 % 1008,4 hPa 0,0 l/m 1,0 km/h (0 Bft) O-NO 67 0 min 0,1 C 2,1 C 0,0 km/h (0 Bft)
08.12.2020 19:50 2,5 C 5,4 C 1,7 C 2,3 C 2,0 C 0,0 C 84 % 88 % 1008,7 hPa 0,0 l/m 0,3 km/h (0 Bft) O-NO 67 0 min 0,1 C 2,0 C 0,0 km/h (0 Bft)
08.12.2020 19:55 2,4 C 5,4 C 1,5 C 2,1 C 1,6 C 0,0 C 84 % 88 % 1008,7 hPa 0,0 l/m 0,0 km/h (0 Bft) NO 45 0 min -0,0 C 1,6 C 0,0 km/h (0 Bft)
08.12.2020 20:00 2,3 C 5,4 C 1,5 C 2,0 C 1,5 C 0,0 C 84 % 88 % 1008,7 hPa 0,0 l/m 0,3 km/h (0 Bft) O-NO 67 0 min -0,1 C 1,5 C 1,6 km/h (1 Bft)
08.12.2020 20:05 2,3 C 5,4 C 1,5 C 2,1 C 1,6 C 0,0 C 84 % 88 % 1008,7 hPa 0,0 l/m 0,5 km/h (0 Bft) NO 45 0 min -0,1 C 1,6 C 0,0 km/h (0 Bft)
08.12.2020 20:10 2,3 C 5,4 C 1,6 C 2,1 C 1,7 C 0,0 C 84 % 89 % 1008,9 hPa 0,0 l/m 0,2 km/h (0 Bft) O-NO 67 0 min -0,1 C 1,7 C 0,0 km/h (0 Bft)
08.12.2020 20:15 2,2 C 5,4 C 1,7 C 2,1 C 1,8 C 0,0 C 84 % 88 % 1008,9 hPa 0,0 l/m 0,2 km/h (0 Bft) N-NO 22 0 min -0,2 C 1,8 C 0,0 km/h (0 Bft)
08.12.2020 20:20 2,3 C 5,4 C 1,6 C 2,1 C 1,8 C 0,0 C 84 % 88 % 1008,9 hPa 0,0 l/m 0,0 km/h (0 Bft) N-NO 22 0 min -0,1 C 1,8 C 0,0 km/h (0 Bft)
08.12.2020 20:25 2,3 C 5,4 C 1,7 C 2,2 C 2,0 C 0,0 C 84 % 89 % 1008,9 hPa 0,0 l/m 0,3 km/h (0 Bft) O-NO 67 0 min -0,1 C 2,0 C 2,3 km/h (1 Bft)
08.12.2020 20:30 2,3 C 5,4 C 1,9 C 2,2 C 2,1 C 0,0 C 85 % 89 % 1009,0 hPa 0,0 l/m 0,5 km/h (0 Bft) O-NO 67 0 min 0,0 C 2,1 C 0,0 km/h (0 Bft)
08.12.2020 20:35 2,3 C 5,4 C 1,8 C 2,2 C 2,1 C 0,0 C 85 % 88 % 1009,0 hPa 0,0 l/m 0,2 km/h (0 Bft) O-NO 67 0 min 0,0 C 2,1 C 0,0 km/h (0 Bft)
08.12.2020 20:40 2,3 C 5,4 C 1,7 C 2,2 C 2,1 C 0,0 C 85 % 88 % 1009,0 hPa 0,0 l/m 0,0 km/h (0 Bft) NO 45 0 min 0,0 C 2,1 C 0,0 km/h (0 Bft)
08.12.2020 20:45 2,3 C 5,4 C 1,6 C 2,2 C 2,1 C 0,0 C 85 % 89 % 1009,0 hPa 0,0 l/m 0,0 km/h (0 Bft) O-NO 67 0 min 0,0 C 2,1 C 0,0 km/h (0 Bft)
08.12.2020 20:50 2,3 C 5,4 C 1,5 C 2,3 C 2,2 C 0,0 C 85 % 89 % 1009,0 hPa 0,0 l/m 0,6 km/h (0 Bft) O-NO 67 0 min 0,0 C 2,2 C 2,3 km/h (1 Bft)
08.12.2020 20:55 2,5 C 5,5 C 1,9 C 2,4 C 2,3 C 0,0 C 85 % 90 % 1009,0 hPa 0,0 l/m 2,9 km/h (1 Bft) NO 45 0 min 0,2 C 2,3 C 5,5 km/h (1 Bft)
08.12.2020 21:00 2,7 C 5,5 C 2,1 C 2,5 C 2,1 C 0,0 C 85 % 90 % 1009,0 hPa 0,0 l/m 3,7 km/h (1 Bft) NO 45 0 min 0,4 C 2,1 C 4,0 km/h (1 Bft)
08.12.2020 21:05 2,9 C 5,4 C 2,3 C 2,8 C 2,6 C 0,0 C 86 % 89 % 1009,0 hPa 0,0 l/m 3,4 km/h (1 Bft) NO 45 0 min 0,8 C 2,6 C 2,4 km/h (1 Bft)
08.12.2020 21:10 3,1 C 5,4 C 2,4 C 3,1 C 3,1 C 0,0 C 86 % 89 % 1009,0 hPa 0,0 l/m 2,6 km/h (1 Bft) N-NO 22 0 min 1,0 C 3,1 C 2,1 km/h (1 Bft)
08.12.2020 21:15 3,1 C 5,4 C 2,4 C 3,1 C 3,1 C 0,0 C 86 % 89 % 1009,0 hPa 0,0 l/m 1,6 km/h (1 Bft) NO 45 0 min 1,0 C 3,1 C 0,0 km/h (0 Bft)
08.12.2020 21:20 3,1 C 5,4 C 2,2 C 3,1 C 3,1 C 0,0 C 85 % 89 % 1009,0 hPa 0,0 l/m 1,0 km/h (0 Bft) NO 45 0 min 0,8 C 3,1 C 0,0 km/h (0 Bft)
08.12.2020 21:25 3,1 C 5,4 C 2,3 C 3,1 C 3,0 C 0,0 C 85 % 89 % 1009,0 hPa 0,0 l/m 0,8 km/h (0 Bft) O-NO 67 0 min 0,8 C 3,0 C 4,3 km/h (1 Bft)
08.12.2020 21:30 3,2 C 5,4 C 2,3 C 3,2 C 3,2 C 0,0 C 85 % 89 % 1008,7 hPa 0,0 l/m 2,3 km/h (1 Bft) NO 45 0 min 0,9 C 3,2 C 4,3 km/h (1 Bft)
08.12.2020 21:35 3,5 C 5,5 C 2,6 C 3,4 C 3,1 C 0,0 C 85 % 89 % 1008,7 hPa 0,0 l/m 3,9 km/h (1 Bft) O-NO 67 0 min 1,2 C 3,1 C 3,4 km/h (1 Bft)
08.12.2020 21:40 3,7 C 5,5 C 2,8 C 3,5 C 3,2 C 0,0 C 86 % 89 % 1008,7 hPa 0,0 l/m 4,2 km/h (1 Bft) O-NO 67 0 min 1,6 C 3,2 C 4,2 km/h (1 Bft)
08.12.2020 21:45 4,0 C 5,5 C 3,1 C 3,9 C 3,6 C 0,0 C 86 % 89 % 1008,7 hPa 0,0 l/m 4,2 km/h (1 Bft) NO 45 0 min 1,9 C 3,6 C 4,7 km/h (1 Bft)
08.12.2020 21:50 4,1 C 5,5 C 2,9 C 4,2 C 4,2 C 0,1 C 85 % 89 % 1008,9 hPa 0,0 l/m 3,4 km/h (1 Bft) O-NO 67 0 min 1,8 C 4,2 C 4,5 km/h (1 Bft)
08.12.2020 21:55 4,2 C 5,5 C 3,2 C 4,4 C 4,4 C 0,2 C 86 % 89 % 1008,9 hPa 0,0 l/m 3,4 km/h (1 Bft) O-NO 67 0 min 2,1 C 4,4 C 4,3 km/h (1 Bft)
08.12.2020 22:00 4,3 C 5,5 C 3,3 C 4,3 C 4,3 C 0,0 C 86 % 89 % 1008,9 hPa 0,0 l/m 3,9 km/h (1 Bft) O-NO 67 0 min 2,2 C 4,3 C 3,4 km/h (1 Bft)
08.12.2020 22:05 4,3 C 5,5 C 3,4 C 4,6 C 4,6 C 0,3 C 85 % 89 % 1008,9 hPa 0,0 l/m 2,7 km/h (1 Bft) NO 45 0 min 2,0 C 4,6 C 2,1 km/h (1 Bft)
08.12.2020 22:10 4,2 C 5,5 C 3,4 C 4,4 C 4,4 C 0,2 C 85 % 89 % 1008,7 hPa 0,0 l/m 1,6 km/h (1 Bft) NO 45 0 min 1,9 C 4,4 C 2,3 km/h (1 Bft)
08.12.2020 22:15 4,1 C 5,5 C 3,3 C 4,0 C 3,8 C 0,0 C 84 % 88 % 1008,7 hPa 0,0 l/m 1,0 km/h (0 Bft) N-NO 22 0 min 1,6 C 3,8 C 0,0 km/h (0 Bft)
08.12.2020 22:20 4,0 C 5,5 C 3,2 C 3,8 C 3,5 C 0,0 C 84 % 88 % 1008,7 hPa 0,0 l/m 0,6 km/h (0 Bft) N-NO 22 0 min 1,5 C 3,5 C 0,0 km/h (0 Bft)
08.12.2020 22:25 3,8 C 5,5 C 2,9 C 3,6 C 3,1 C 0,0 C 84 % 88 % 1008,7 hPa 0,0 l/m 0,2 km/h (0 Bft) N-NO 22 0 min 1,4 C 3,1 C 0,0 km/h (0 Bft)
08.12.2020 22:30 3,7 C 5,6 C 2,8 C 3,4 C 2,9 C 0,0 C 84 % 89 % 1009,1 hPa 0,0 l/m 0,2 km/h (0 Bft) N-NO 22 0 min 1,3 C 2,9 C 1,8 km/h (1 Bft)
08.12.2020 22:35 3,6 C 5,6 C 2,7 C 3,3 C 2,7 C 0,0 C 84 % 89 % 1009,1 hPa 0,0 l/m 0,6 km/h (0 Bft) N-NO 22 0 min 1,2 C 2,7 C 2,7 km/h (1 Bft)
08.12.2020 22:40 3,5 C 5,6 C 2,6 C 3,2 C 2,7 C 0,0 C 84 % 89 % 1009,1 hPa 0,0 l/m 0,6 km/h (0 Bft) N-NO 22 0 min 1,1 C 2,7 C 0,0 km/h (0 Bft)
08.12.2020 22:45 3,5 C 5,5 C 2,5 C 3,2 C 2,5 C 0,0 C 85 % 90 % 1009,1 hPa 0,7 l/m 0,3 km/h (0 Bft) N-NO 22 0 min 1,2 C 2,5 C 0,0 km/h (0 Bft)
08.12.2020 22:50 3,3 C 5,5 C 2,4 C 3,0 C 2,5 C 0,0 C 85 % 90 % 1009,1 hPa 0,0 l/m 0,3 km/h (0 Bft) N-NO 22 0 min 1,0 C 2,5 C 1,6 km/h (1 Bft)
08.12.2020 22:55 3,2 C 5,5 C 2,3 C 2,9 C 2,4 C 0,0 C 85 % 90 % 1009,1 hPa 0,0 l/m 0,6 km/h (0 Bft) N-NO 22 0 min 0,9 C 2,4 C 1,9 km/h (1 Bft)
08.12.2020 23:00 3,1 C 5,5 C 2,3 C 2,9 C 2,4 C 0,0 C 85 % 91 % 1009,1 hPa 0,0 l/m 0,8 km/h (0 Bft) N-NO 22 0 min 0,8 C 2,4 C 2,1 km/h (1 Bft)
08.12.2020 23:05 3,1 C 5,5 C 2,2 C 2,8 C 2,3 C 0,0 C 85 % 91 % 1009,1 hPa 0,7 l/m 1,4 km/h (1 Bft) N-NO 22 0 min 0,8 C 2,3 C 2,6 km/h (1 Bft)
08.12.2020 23:10 2,9 C 5,5 C 2,1 C 2,7 C 2,3 C 0,0 C 86 % 91 % 1009,1 hPa 0,0 l/m 1,3 km/h (1 Bft) N-NO 22 0 min 0,8 C 2,3 C 1,9 km/h (1 Bft)
08.12.2020 23:15 2,8 C 5,5 C 2,1 C 2,6 C 2,3 C 0,0 C 86 % 92 % 1009,1 hPa 0,7 l/m 0,6 km/h (0 Bft) N-NO 22 0 min 0,7 C 2,3 C 0,0 km/h (0 Bft)
08.12.2020 23:20 2,9 C 5,5 C 2,1 C 2,7 C 2,3 C 0,0 C 86 % 92 % 1009,1 hPa 0,0 l/m 0,3 km/h (0 Bft) N-NO 22 0 min 0,8 C 2,3 C 0,0 km/h (0 Bft)
08.12.2020 23:25 2,8 C 5,5 C 2,1 C 2,6 C 2,3 C 0,0 C 86 % 92 % 1009,1 hPa 0,7 l/m 0,3 km/h (0 Bft) N-NO 22 0 min 0,7 C 2,3 C 0,0 km/h (0 Bft)
08.12.2020 23:30 2,7 C 5,5 C 2,1 C 2,6 C 2,3 C 0,0 C 87 % 92 % 1008,9 hPa 0,0 l/m 0,3 km/h (0 Bft) N-NO 22 0 min 0,8 C 2,3 C 1,6 km/h (1 Bft)
08.12.2020 23:35 2,7 C 5,5 C 2,1 C 2,6 C 2,3 C 0,0 C 87 % 92 % 1008,9 hPa 0,7 l/m 0,0 km/h (0 Bft) N-NO 22 0 min 0,8 C 2,3 C 0,0 km/h (0 Bft)
08.12.2020 23:40 2,6 C 5,5 C 2,1 C 2,5 C 2,4 C 0,0 C 87 % 92 % 1008,9 hPa 0,0 l/m 0,2 km/h (0 Bft) N-NO 22 0 min 0,7 C 2,4 C 1,8 km/h (1 Bft)
08.12.2020 23:45 2,7 C 5,5 C 2,1 C 2,6 C 2,4 C 0,0 C 87 % 92 % 1008,9 hPa 0,7 l/m 1,3 km/h (1 Bft) N-NO 22 0 min 0,8 C 2,4 C 2,1 km/h (1 Bft)
08.12.2020 23:50 2,7 C 5,5 C 2,1 C 2,6 C 2,4 C 0,0 C 87 % 92 % 1009,0 hPa 0,0 l/m 2,1 km/h (1 Bft) N-NO 22 0 min 0,8 C 2,4 C 2,1 km/h (1 Bft)
08.12.2020 23:55 2,7 C 5,5 C 2,2 C 2,6 C 2,5 C 0,0 C 87 % 92 % 1009,0 hPa 0,7 l/m 1,9 km/h (1 Bft) N-NO 22 0 min 0,8 C 2,5 C 2,6 km/h (1 Bft)
_ Min-Zeit 09:00 12:15 07:45 08:35 07:25 03:45 13:45 13:45 12:50 - 00:00 - - - 09:00 07:25 00:00
Minimum _ -2,5 C 4,8 C -2,9 C -2,5 C -3,1 C 0,0 C 75 % 80 % 1005,2 hPa - 0,0 km/h (0 Bft) - - - -4,2 C -3,1 C 0,0 km/h (0 Bft)
_ Max-Zeit 13:00 00:00 12:50 11:30 11:30 11:30 10:05 09:25 22:30 22:45 14:45 - - 11:05 12:50 11:30 14:55
Maximum _ 6,9 C 5,7 C 6,0 C 9,4 C 9,4 C 8,3 C 89 % 93 % 1009,1 hPa 0,7 l/m 7,7 km/h
O-NO (2 Bft)
- - 5 min 4,4 C 9,4 C 14,8 km/h
N-NO (3 Bft)
Durchschnitt _ 1,8 C 5,3 C 1,3 C 2,3 C 2,0 C 0,7 C 85 % 89 % 1007,3 hPa #4,8 l/m 1,3 km/h (1 Bft) NO - #1:25 h -0,5 C 2,0 C 1,7 km/h (1 Bft)
2020 www.wetterstation-wechselburg.de